sensor_id;sensor_type;location;lat;lon;timestamp;P1;durP1;ratioP1;P2;durP2;ratioP2
24233;SDS011;12365;43.554;1.388;2022-08-11T00:01:46;7.00;;;1.50;;
24233;SDS011;12365;43.554;1.388;2022-08-11T00:04:13;3.92;;;1.30;;
24233;SDS011;12365;43.554;1.388;2022-08-11T00:06:40;2.28;;;1.20;;
24233;SDS011;12365;43.554;1.388;2022-08-11T00:09:08;1.50;;;1.15;;
24233;SDS011;12365;43.554;1.388;2022-08-11T00:11:37;2.75;;;1.20;;
24233;SDS011;12365;43.554;1.388;2022-08-11T00:14:17;3.40;;;1.50;;
24233;SDS011;12365;43.554;1.388;2022-08-11T00:17:03;2.20;;;1.30;;
24233;SDS011;12365;43.554;1.388;2022-08-11T00:19:39;4.20;;;1.10;;
24233;SDS011;12365;43.554;1.388;2022-08-11T00:22:10;10.43;;;1.40;;
24233;SDS011;12365;43.554;1.388;2022-08-11T00:24:43;2.03;;;1.27;;
24233;SDS011;12365;43.554;1.388;2022-08-11T00:27:09;2.80;;;1.40;;
24233;SDS011;12365;43.554;1.388;2022-08-11T00:29:34;4.53;;;1.30;;
24233;SDS011;12365;43.554;1.388;2022-08-11T00:32:02;3.00;;;1.25;;
24233;SDS011;12365;43.554;1.388;2022-08-11T00:34:30;3.40;;;1.40;;
24233;SDS011;12365;43.554;1.388;2022-08-11T00:37:02;1.70;;;1.30;;
24233;SDS011;12365;43.554;1.388;2022-08-11T00:39:31;1.98;;;1.23;;
24233;SDS011;12365;43.554;1.388;2022-08-11T00:45:02;3.13;;;1.40;;
24233;SDS011;12365;43.554;1.388;2022-08-11T00:55:41;2.85;;;1.42;;
24233;SDS011;12365;43.554;1.388;2022-08-11T01:01:07;3.00;;;1.52;;
24233;SDS011;12365;43.554;1.388;2022-08-11T01:18:56;2.20;;;1.40;;
24233;SDS011;12365;43.554;1.388;2022-08-11T01:47:55;3.50;;;1.50;;
24233;SDS011;12365;43.554;1.388;2022-08-11T02:16:02;2.65;;;1.40;;
24233;SDS011;12365;43.554;1.388;2022-08-11T02:18:45;5.18;;;1.55;;
24233;SDS011;12365;43.554;1.388;2022-08-11T02:22:27;1.92;;;1.40;;
24233;SDS011;12365;43.554;1.388;2022-08-11T02:25:20;1.95;;;1.48;;
24233;SDS011;12365;43.554;1.388;2022-08-11T02:28:12;3.33;;;1.73;;
24233;SDS011;12365;43.554;1.388;2022-08-11T02:31:10;2.08;;;1.55;;
24233;SDS011;12365;43.554;1.388;2022-08-11T02:34:06;2.90;;;1.75;;
24233;SDS011;12365;43.554;1.388;2022-08-11T02:36:48;2.70;;;1.70;;
24233;SDS011;12365;43.554;1.388;2022-08-11T02:39:24;2.47;;;1.80;;
24233;SDS011;12365;43.554;1.388;2022-08-11T02:50:30;4.88;;;2.10;;
24233;SDS011;12365;43.554;1.388;2022-08-11T02:53:02;3.80;;;2.10;;
24233;SDS011;12365;43.554;1.388;2022-08-11T03:01:52;4.22;;;2.40;;
24233;SDS011;12365;43.554;1.388;2022-08-11T03:04:29;4.03;;;2.28;;
24233;SDS011;12365;43.554;1.388;2022-08-11T03:07:06;2.55;;;2.08;;
24233;SDS011;12365;43.554;1.388;2022-08-11T03:09:45;4.32;;;2.30;;
24233;SDS011;12365;43.554;1.388;2022-08-11T03:12:22;2.63;;;2.22;;
24233;SDS011;12365;43.554;1.388;2022-08-11T03:15:16;2.55;;;2.10;;
24233;SDS011;12365;43.554;1.388;2022-08-11T03:23:28;4.18;;;2.47;;
24233;SDS011;12365;43.554;1.388;2022-08-11T03:26:08;3.00;;;2.58;;
24233;SDS011;12365;43.554;1.388;2022-08-11T03:34:20;3.17;;;2.47;;
24233;SDS011;12365;43.554;1.388;2022-08-11T03:43:05;6.63;;;2.50;;
24233;SDS011;12365;43.554;1.388;2022-08-11T03:51:21;4.00;;;3.00;;
24233;SDS011;12365;43.554;1.388;2022-08-11T03:53:59;5.07;;;2.80;;
24233;SDS011;12365;43.554;1.388;2022-08-11T04:30:27;4.95;;;2.63;;
24233;SDS011;12365;43.554;1.388;2022-08-11T04:36:54;3.53;;;2.70;;
24233;SDS011;12365;43.554;1.388;2022-08-11T04:47:53;4.18;;;2.80;;
24233;SDS011;12365;43.554;1.388;2022-08-11T04:54:01;5.28;;;2.72;;
24233;SDS011;12365;43.554;1.388;2022-08-11T04:57:13;5.38;;;3.05;;
24233;SDS011;12365;43.554;1.388;2022-08-11T05:00:09;7.50;;;2.88;;
24233;SDS011;12365;43.554;1.388;2022-08-11T05:06:16;5.05;;;2.70;;
24233;SDS011;12365;43.554;1.388;2022-08-11T05:11:48;5.80;;;2.70;;
24233;SDS011;12365;43.554;1.388;2022-08-11T05:14:38;4.65;;;2.63;;
24233;SDS011;12365;43.554;1.388;2022-08-11T05:17:35;7.35;;;2.70;;
24233;SDS011;12365;43.554;1.388;2022-08-11T05:20:22;11.35;;;2.63;;
24233;SDS011;12365;43.554;1.388;2022-08-11T05:23:09;5.32;;;2.60;;
24233;SDS011;12365;43.554;1.388;2022-08-11T05:25:55;4.95;;;2.85;;
24233;SDS011;12365;43.554;1.388;2022-08-11T05:28:49;4.45;;;2.72;;
24233;SDS011;12365;43.554;1.388;2022-08-11T05:31:37;4.03;;;2.67;;
24233;SDS011;12365;43.554;1.388;2022-08-11T05:34:28;8.10;;;2.75;;
24233;SDS011;12365;43.554;1.388;2022-08-11T05:37:22;5.05;;;2.60;;
24233;SDS011;12365;43.554;1.388;2022-08-11T05:40:04;3.67;;;2.55;;
24233;SDS011;12365;43.554;1.388;2022-08-11T05:42:54;2.90;;;2.40;;
24233;SDS011;12365;43.554;1.388;2022-08-11T05:45:55;6.72;;;2.70;;
24233;SDS011;12365;43.554;1.388;2022-08-11T05:48:43;9.07;;;2.60;;
24233;SDS011;12365;43.554;1.388;2022-08-11T05:51:33;3.78;;;2.60;;
24233;SDS011;12365;43.554;1.388;2022-08-11T05:54:17;3.83;;;2.55;;
24233;SDS011;12365;43.554;1.388;2022-08-11T05:57:02;5.45;;;2.40;;
24233;SDS011;12365;43.554;1.388;2022-08-11T05:59:28;5.47;;;2.80;;
24233;SDS011;12365;43.554;1.388;2022-08-11T06:01:59;3.22;;;2.67;;
24233;SDS011;12365;43.554;1.388;2022-08-11T06:04:29;9.20;;;2.75;;
24233;SDS011;12365;43.554;1.388;2022-08-11T06:07:04;3.38;;;2.38;;
24233;SDS011;12365;43.554;1.388;2022-08-11T06:12:19;4.95;;;2.30;;
24233;SDS011;12365;43.554;1.388;2022-08-11T06:14:47;3.42;;;2.50;;
24233;SDS011;12365;43.554;1.388;2022-08-11T06:19:56;8.50;;;2.47;;
24233;SDS011;12365;43.554;1.388;2022-08-11T06:22:24;3.42;;;2.38;;
24233;SDS011;12365;43.554;1.388;2022-08-11T06:25:01;3.35;;;2.30;;
24233;SDS011;12365;43.554;1.388;2022-08-11T06:27:29;4.00;;;2.40;;
24233;SDS011;12365;43.554;1.388;2022-08-11T06:29:57;4.28;;;2.45;;
24233;SDS011;12365;43.554;1.388;2022-08-11T06:32:24;5.63;;;2.95;;
24233;SDS011;12365;43.554;1.388;2022-08-11T06:40:30;4.22;;;2.47;;
24233;SDS011;12365;43.554;1.388;2022-08-11T06:43:30;11.18;;;6.10;;
24233;SDS011;12365;43.554;1.388;2022-08-11T06:46:10;17.08;;;8.57;;
24233;SDS011;12365;43.554;1.388;2022-08-11T06:48:38;8.82;;;4.55;;
24233;SDS011;12365;43.554;1.388;2022-08-11T06:51:06;11.48;;;5.63;;
24233;SDS011;12365;43.554;1.388;2022-08-11T06:56:14;3.75;;;2.60;;
24233;SDS011;12365;43.554;1.388;2022-08-11T06:58:59;4.10;;;2.30;;
24233;SDS011;12365;43.554;1.388;2022-08-11T07:04:26;4.32;;;2.20;;
24233;SDS011;12365;43.554;1.388;2022-08-11T07:10:01;6.88;;;2.20;;
24233;SDS011;12365;43.554;1.388;2022-08-11T07:12:56;4.82;;;2.40;;
24233;SDS011;12365;43.554;1.388;2022-08-11T07:15:42;3.35;;;2.30;;
24233;SDS011;12365;43.554;1.388;2022-08-11T07:18:10;4.88;;;2.47;;
24233;SDS011;12365;43.554;1.388;2022-08-11T07:21:05;7.95;;;2.22;;
24233;SDS011;12365;43.554;1.388;2022-08-11T07:23:53;2.95;;;2.00;;
24233;SDS011;12365;43.554;1.388;2022-08-11T07:26:39;5.32;;;2.25;;
24233;SDS011;12365;43.554;1.388;2022-08-11T07:29:28;7.05;;;2.30;;
24233;SDS011;12365;43.554;1.388;2022-08-11T07:31:56;6.45;;;2.13;;
24233;SDS011;12365;43.554;1.388;2022-08-11T07:34:30;7.32;;;2.30;;
24233;SDS011;12365;43.554;1.388;2022-08-11T07:37:01;4.30;;;2.35;;
24233;SDS011;12365;43.554;1.388;2022-08-11T07:39:33;3.67;;;2.40;;
24233;SDS011;12365;43.554;1.388;2022-08-11T07:42:04;3.97;;;2.20;;
24233;SDS011;12365;43.554;1.388;2022-08-11T07:44:31;3.85;;;2.00;;
24233;SDS011;12365;43.554;1.388;2022-08-11T07:47:19;3.63;;;2.20;;
24233;SDS011;12365;43.554;1.388;2022-08-11T07:50:05;3.33;;;1.80;;
24233;SDS011;12365;43.554;1.388;2022-08-11T07:52:51;4.25;;;2.25;;
24233;SDS011;12365;43.554;1.388;2022-08-11T07:55:17;4.55;;;2.30;;
24233;SDS011;12365;43.554;1.388;2022-08-11T07:57:45;3.72;;;2.00;;
24233;SDS011;12365;43.554;1.388;2022-08-11T08:00:38;4.63;;;2.22;;
24233;SDS011;12365;43.554;1.388;2022-08-11T08:03:27;5.60;;;1.98;;
24233;SDS011;12365;43.554;1.388;2022-08-11T08:06:13;6.40;;;2.00;;
24233;SDS011;12365;43.554;1.388;2022-08-11T08:08:58;3.92;;;2.08;;
24233;SDS011;12365;43.554;1.388;2022-08-11T08:11:43;3.80;;;2.08;;
24233;SDS011;12365;43.554;1.388;2022-08-11T08:14:27;4.28;;;2.28;;
24233;SDS011;12365;43.554;1.388;2022-08-11T08:17:12;9.05;;;2.45;;
24233;SDS011;12365;43.554;1.388;2022-08-11T08:19:56;4.63;;;2.25;;
24233;SDS011;12365;43.554;1.388;2022-08-11T08:22:23;5.20;;;1.92;;
24233;SDS011;12365;43.554;1.388;2022-08-11T08:24:49;3.90;;;2.00;;
24233;SDS011;12365;43.554;1.388;2022-08-11T08:27:15;3.25;;;1.88;;
24233;SDS011;12365;43.554;1.388;2022-08-11T08:29:42;4.85;;;2.08;;
24233;SDS011;12365;43.554;1.388;2022-08-11T08:32:28;3.92;;;2.20;;
24233;SDS011;12365;43.554;1.388;2022-08-11T08:34:56;4.75;;;2.05;;
24233;SDS011;12365;43.554;1.388;2022-08-11T08:37:23;5.53;;;2.10;;
24233;SDS011;12365;43.554;1.388;2022-08-11T08:39:53;3.95;;;1.70;;
24233;SDS011;12365;43.554;1.388;2022-08-11T08:42:29;5.53;;;1.95;;
24233;SDS011;12365;43.554;1.388;2022-08-11T08:47:30;6.78;;;1.85;;
24233;SDS011;12365;43.554;1.388;2022-08-11T08:50:04;2.85;;;2.22;;
24233;SDS011;12365;43.554;1.388;2022-08-11T08:52:36;3.20;;;1.88;;
24233;SDS011;12365;43.554;1.388;2022-08-11T08:55:07;6.50;;;1.95;;
24233;SDS011;12365;43.554;1.388;2022-08-11T08:57:36;2.10;;;1.70;;
24233;SDS011;12365;43.554;1.388;2022-08-11T09:00:05;2.95;;;1.77;;
24233;SDS011;12365;43.554;1.388;2022-08-11T09:02:31;2.90;;;1.70;;
24233;SDS011;12365;43.554;1.388;2022-08-11T09:04:58;4.70;;;1.90;;
24233;SDS011;12365;43.554;1.388;2022-08-11T09:07:25;5.18;;;1.90;;
24233;SDS011;12365;43.554;1.388;2022-08-11T09:09:52;6.03;;;1.73;;
24233;SDS011;12365;43.554;1.388;2022-08-11T09:12:21;7.25;;;1.77;;
24233;SDS011;12365;43.554;1.388;2022-08-11T09:14:52;2.45;;;1.73;;
24233;SDS011;12365;43.554;1.388;2022-08-11T09:17:25;3.28;;;1.98;;
24233;SDS011;12365;43.554;1.388;2022-08-11T09:20:07;2.22;;;1.88;;
24233;SDS011;12365;43.554;1.388;2022-08-11T09:22:40;6.72;;;1.92;;
24233;SDS011;12365;43.554;1.388;2022-08-11T09:25:27;3.15;;;1.60;;
24233;SDS011;12365;43.554;1.388;2022-08-11T09:28:13;3.63;;;1.88;;
24233;SDS011;12365;43.554;1.388;2022-08-11T09:30:41;6.80;;;2.10;;
24233;SDS011;12365;43.554;1.388;2022-08-11T09:33:08;5.82;;;2.00;;
24233;SDS011;12365;43.554;1.388;2022-08-11T09:35:35;2.85;;;1.80;;
24233;SDS011;12365;43.554;1.388;2022-08-11T09:38:03;3.72;;;1.83;;
24233;SDS011;12365;43.554;1.388;2022-08-11T09:40:49;4.15;;;1.88;;
24233;SDS011;12365;43.554;1.388;2022-08-11T09:43:16;4.47;;;1.70;;
24233;SDS011;12365;43.554;1.388;2022-08-11T09:46:02;2.33;;;1.60;;
24233;SDS011;12365;43.554;1.388;2022-08-11T09:48:29;4.57;;;1.83;;
24233;SDS011;12365;43.554;1.388;2022-08-11T09:50:59;4.40;;;2.00;;
24233;SDS011;12365;43.554;1.388;2022-08-11T09:53:27;3.05;;;1.60;;
24233;SDS011;12365;43.554;1.388;2022-08-11T09:55:56;5.05;;;1.55;;
24233;SDS011;12365;43.554;1.388;2022-08-11T09:58:22;3.67;;;1.80;;
24233;SDS011;12365;43.554;1.388;2022-08-11T10:00:49;3.22;;;1.80;;
24233;SDS011;12365;43.554;1.388;2022-08-11T10:03:20;4.75;;;1.73;;
24233;SDS011;12365;43.554;1.388;2022-08-11T10:05:49;6.80;;;1.80;;
24233;SDS011;12365;43.554;1.388;2022-08-11T10:08:36;5.50;;;1.88;;
24233;SDS011;12365;43.554;1.388;2022-08-11T10:11:05;4.88;;;1.70;;
24233;SDS011;12365;43.554;1.388;2022-08-11T10:16:25;2.70;;;1.70;;
24233;SDS011;12365;43.554;1.388;2022-08-11T10:18:52;5.78;;;2.20;;
24233;SDS011;12365;43.554;1.388;2022-08-11T10:21:30;2.28;;;1.77;;
24233;SDS011;12365;43.554;1.388;2022-08-11T10:24:06;8.93;;;1.70;;
24233;SDS011;12365;43.554;1.388;2022-08-11T10:26:52;5.43;;;1.80;;
24233;SDS011;12365;43.554;1.388;2022-08-11T10:32:24;4.82;;;1.75;;
24233;SDS011;12365;43.554;1.388;2022-08-11T10:35:12;3.97;;;1.77;;
24233;SDS011;12365;43.554;1.388;2022-08-11T10:37:39;6.82;;;1.60;;
24233;SDS011;12365;43.554;1.388;2022-08-11T10:40:08;2.83;;;1.50;;
24233;SDS011;12365;43.554;1.388;2022-08-11T10:42:37;4.43;;;1.67;;
24233;SDS011;12365;43.554;1.388;2022-08-11T10:45:21;2.83;;;1.50;;
24233;SDS011;12365;43.554;1.388;2022-08-11T10:48:07;4.32;;;1.60;;
24233;SDS011;12365;43.554;1.388;2022-08-11T10:50:34;9.68;;;1.85;;
24233;SDS011;12365;43.554;1.388;2022-08-11T10:53:19;7.32;;;1.70;;
24233;SDS011;12365;43.554;1.388;2022-08-11T10:56:04;5.05;;;1.70;;
24233;SDS011;12365;43.554;1.388;2022-08-11T10:58:50;2.42;;;1.60;;
24233;SDS011;12365;43.554;1.388;2022-08-11T11:03:46;5.90;;;1.77;;
24233;SDS011;12365;43.554;1.388;2022-08-11T11:08:59;2.05;;;1.50;;
24233;SDS011;12365;43.554;1.388;2022-08-11T11:11:29;2.58;;;1.73;;
24233;SDS011;12365;43.554;1.388;2022-08-11T11:14:18;3.28;;;1.60;;
24233;SDS011;12365;43.554;1.388;2022-08-11T11:17:04;1.50;;;1.40;;
24233;SDS011;12365;43.554;1.388;2022-08-11T11:19:52;2.17;;;1.55;;
24233;SDS011;12365;43.554;1.388;2022-08-11T11:30:17;5.18;;;1.60;;
24233;SDS011;12365;43.554;1.388;2022-08-11T11:32:48;2.05;;;1.50;;
24233;SDS011;12365;43.554;1.388;2022-08-11T11:38:19;5.25;;;1.98;;
24233;SDS011;12365;43.554;1.388;2022-08-11T11:40:45;6.15;;;1.80;;
24233;SDS011;12365;43.554;1.388;2022-08-11T11:43:31;3.60;;;1.67;;
24233;SDS011;12365;43.554;1.388;2022-08-11T11:45:59;3.47;;;1.60;;
24233;SDS011;12365;43.554;1.388;2022-08-11T11:48:25;3.83;;;1.70;;
24233;SDS011;12365;43.554;1.388;2022-08-11T11:50:52;2.85;;;1.88;;
24233;SDS011;12365;43.554;1.388;2022-08-11T11:53:19;2.88;;;1.50;;
24233;SDS011;12365;43.554;1.388;2022-08-11T11:55:46;6.30;;;1.55;;
24233;SDS011;12365;43.554;1.388;2022-08-11T11:58:12;2.60;;;1.77;;
24233;SDS011;12365;43.554;1.388;2022-08-11T12:00:56;3.33;;;1.65;;
24233;SDS011;12365;43.554;1.388;2022-08-11T12:03:40;5.15;;;1.70;;
24233;SDS011;12365;43.554;1.388;2022-08-11T12:06:10;2.38;;;1.60;;
24233;SDS011;12365;43.554;1.388;2022-08-11T12:08:40;5.15;;;1.70;;
24233;SDS011;12365;43.554;1.388;2022-08-11T12:11:08;2.80;;;1.70;;
24233;SDS011;12365;43.554;1.388;2022-08-11T12:13:54;2.40;;;1.55;;
24233;SDS011;12365;43.554;1.388;2022-08-11T12:16:22;21.70;;;3.17;;
24233;SDS011;12365;43.554;1.388;2022-08-11T12:18:49;4.15;;;2.03;;
24233;SDS011;12365;43.554;1.388;2022-08-11T12:21:18;3.95;;;1.73;;
24233;SDS011;12365;43.554;1.388;2022-08-11T12:23:44;3.30;;;1.90;;
24233;SDS011;12365;43.554;1.388;2022-08-11T12:26:30;2.28;;;1.65;;
24233;SDS011;12365;43.554;1.388;2022-08-11T12:29:16;8.93;;;1.83;;
24233;SDS011;12365;43.554;1.388;2022-08-11T12:31:46;3.15;;;1.88;;
24233;SDS011;12365;43.554;1.388;2022-08-11T12:34:13;4.63;;;1.90;;
24233;SDS011;12365;43.554;1.388;2022-08-11T12:36:45;3.17;;;1.70;;
24233;SDS011;12365;43.554;1.388;2022-08-11T12:39:16;7.22;;;1.90;;
24233;SDS011;12365;43.554;1.388;2022-08-11T12:42:06;3.55;;;1.85;;
24233;SDS011;12365;43.554;1.388;2022-08-11T12:44:52;6.07;;;2.08;;
24233;SDS011;12365;43.554;1.388;2022-08-11T12:47:38;13.00;;;2.90;;
24233;SDS011;12365;43.554;1.388;2022-08-11T12:50:24;4.15;;;1.60;;
24233;SDS011;12365;43.554;1.388;2022-08-11T12:53:09;4.82;;;1.85;;
24233;SDS011;12365;43.554;1.388;2022-08-11T12:55:36;4.22;;;1.90;;
24233;SDS011;12365;43.554;1.388;2022-08-11T12:58:23;2.75;;;1.83;;
24233;SDS011;12365;43.554;1.388;2022-08-11T13:00:51;5.00;;;1.60;;
24233;SDS011;12365;43.554;1.388;2022-08-11T13:03:35;1.88;;;1.63;;
24233;SDS011;12365;43.554;1.388;2022-08-11T13:06:22;4.18;;;1.70;;
24233;SDS011;12365;43.554;1.388;2022-08-11T13:08:48;4.75;;;1.90;;
24233;SDS011;12365;43.554;1.388;2022-08-11T13:11:15;2.65;;;1.80;;
24233;SDS011;12365;43.554;1.388;2022-08-11T13:14:00;6.97;;;1.90;;
24233;SDS011;12365;43.554;1.388;2022-08-11T13:16:33;3.10;;;1.90;;
24233;SDS011;12365;43.554;1.388;2022-08-11T13:19:21;2.95;;;1.80;;
24233;SDS011;12365;43.554;1.388;2022-08-11T13:21:48;3.72;;;2.05;;
24233;SDS011;12365;43.554;1.388;2022-08-11T13:24:15;3.78;;;1.80;;
24233;SDS011;12365;43.554;1.388;2022-08-11T13:26:43;9.05;;;2.05;;
24233;SDS011;12365;43.554;1.388;2022-08-11T13:29:09;2.65;;;1.88;;
24233;SDS011;12365;43.554;1.388;2022-08-11T13:31:35;3.53;;;1.90;;
24233;SDS011;12365;43.554;1.388;2022-08-11T13:34:02;3.45;;;2.00;;
24233;SDS011;12365;43.554;1.388;2022-08-11T13:36:28;5.45;;;2.00;;
24233;SDS011;12365;43.554;1.388;2022-08-11T13:38:54;4.30;;;1.90;;
24233;SDS011;12365;43.554;1.388;2022-08-11T13:41:22;3.63;;;1.88;;
24233;SDS011;12365;43.554;1.388;2022-08-11T13:44:03;3.00;;;1.98;;
24233;SDS011;12365;43.554;1.388;2022-08-11T13:46:30;2.58;;;1.90;;
24233;SDS011;12365;43.554;1.388;2022-08-11T13:48:57;2.42;;;1.80;;
24233;SDS011;12365;43.554;1.388;2022-08-11T13:51:24;5.40;;;2.00;;
24233;SDS011;12365;43.554;1.388;2022-08-11T13:54:00;5.35;;;2.13;;
24233;SDS011;12365;43.554;1.388;2022-08-11T13:56:29;2.22;;;1.83;;
24233;SDS011;12365;43.554;1.388;2022-08-11T13:58:55;4.35;;;2.03;;
24233;SDS011;12365;43.554;1.388;2022-08-11T14:01:23;2.70;;;1.70;;
24233;SDS011;12365;43.554;1.388;2022-08-11T14:04:04;2.10;;;1.90;;
24233;SDS011;12365;43.554;1.388;2022-08-11T14:06:33;3.28;;;1.85;;
24233;SDS011;12365;43.554;1.388;2022-08-11T14:09:00;2.05;;;1.85;;
24233;SDS011;12365;43.554;1.388;2022-08-11T14:11:28;3.80;;;2.05;;
24233;SDS011;12365;43.554;1.388;2022-08-11T14:14:15;3.53;;;1.90;;
24233;SDS011;12365;43.554;1.388;2022-08-11T14:16:46;2.65;;;1.90;;
24233;SDS011;12365;43.554;1.388;2022-08-11T14:19:15;5.10;;;2.00;;
24233;SDS011;12365;43.554;1.388;2022-08-11T14:24:29;3.95;;;1.85;;
24233;SDS011;12365;43.554;1.388;2022-08-11T14:26:56;3.58;;;2.17;;
24233;SDS011;12365;43.554;1.388;2022-08-11T14:29:24;6.68;;;1.98;;
24233;SDS011;12365;43.554;1.388;2022-08-11T14:31:55;4.63;;;2.00;;
24233;SDS011;12365;43.554;1.388;2022-08-11T14:34:27;3.10;;;1.90;;
24233;SDS011;12365;43.554;1.388;2022-08-11T14:36:59;6.30;;;2.00;;
24233;SDS011;12365;43.554;1.388;2022-08-11T14:39:27;4.68;;;2.15;;
24233;SDS011;12365;43.554;1.388;2022-08-11T14:41:56;2.47;;;1.90;;
24233;SDS011;12365;43.554;1.388;2022-08-11T14:44:44;3.55;;;1.80;;
24233;SDS011;12365;43.554;1.388;2022-08-11T14:47:34;4.90;;;1.80;;
24233;SDS011;12365;43.554;1.388;2022-08-11T14:50:01;3.53;;;2.10;;
24233;SDS011;12365;43.554;1.388;2022-08-11T14:52:27;10.63;;;2.20;;
24233;SDS011;12365;43.554;1.388;2022-08-11T14:54:56;3.73;;;2.00;;
24233;SDS011;12365;43.554;1.388;2022-08-11T14:57:41;2.05;;;1.75;;
24233;SDS011;12365;43.554;1.388;2022-08-11T15:00:08;3.80;;;2.00;;
24233;SDS011;12365;43.554;1.388;2022-08-11T15:02:39;3.53;;;2.00;;
24233;SDS011;12365;43.554;1.388;2022-08-11T15:05:24;7.63;;;2.20;;
24233;SDS011;12365;43.554;1.388;2022-08-11T15:07:50;4.18;;;2.15;;
24233;SDS011;12365;43.554;1.388;2022-08-11T15:10:18;3.42;;;1.90;;
24233;SDS011;12365;43.554;1.388;2022-08-11T15:12:45;2.88;;;2.13;;
24233;SDS011;12365;43.554;1.388;2022-08-11T15:15:11;5.75;;;2.10;;
24233;SDS011;12365;43.554;1.388;2022-08-11T15:17:56;5.20;;;2.20;;
24233;SDS011;12365;43.554;1.388;2022-08-11T15:20:24;6.95;;;2.25;;
24233;SDS011;12365;43.554;1.388;2022-08-11T15:23:09;2.67;;;1.85;;
24233;SDS011;12365;43.554;1.388;2022-08-11T15:25:55;3.08;;;1.98;;
24233;SDS011;12365;43.554;1.388;2022-08-11T15:28:23;7.63;;;1.95;;
24233;SDS011;12365;43.554;1.388;2022-08-11T15:31:09;5.20;;;1.90;;
24233;SDS011;12365;43.554;1.388;2022-08-11T15:33:53;2.10;;;1.90;;
24233;SDS011;12365;43.554;1.388;2022-08-11T15:36:39;7.05;;;2.10;;
24233;SDS011;12365;43.554;1.388;2022-08-11T15:39:29;6.40;;;1.98;;
24233;SDS011;12365;43.554;1.388;2022-08-11T15:42:00;2.78;;;1.83;;
24233;SDS011;12365;43.554;1.388;2022-08-11T15:47:36;3.42;;;1.92;;
24233;SDS011;12365;43.554;1.388;2022-08-11T15:50:06;9.00;;;2.10;;
24233;SDS011;12365;43.554;1.388;2022-08-11T15:52:40;4.68;;;1.92;;
24233;SDS011;12365;43.554;1.388;2022-08-11T15:55:11;3.33;;;1.95;;
24233;SDS011;12365;43.554;1.388;2022-08-11T15:57:38;3.45;;;1.80;;
24233;SDS011;12365;43.554;1.388;2022-08-11T16:00:24;2.88;;;2.00;;
24233;SDS011;12365;43.554;1.388;2022-08-11T16:03:20;5.90;;;2.20;;
24233;SDS011;12365;43.554;1.388;2022-08-11T16:06:06;2.30;;;1.85;;
24233;SDS011;12365;43.554;1.388;2022-08-11T16:08:32;3.67;;;2.03;;
24233;SDS011;12365;43.554;1.388;2022-08-11T16:10:59;2.10;;;1.90;;
24233;SDS011;12365;43.554;1.388;2022-08-11T16:13:26;3.85;;;2.00;;
24233;SDS011;12365;43.554;1.388;2022-08-11T16:15:53;5.57;;;1.98;;
24233;SDS011;12365;43.554;1.388;2022-08-11T16:18:47;2.40;;;2.00;;
24233;SDS011;12365;43.554;1.388;2022-08-11T16:21:26;4.30;;;2.10;;
24233;SDS011;12365;43.554;1.388;2022-08-11T16:23:56;6.30;;;2.10;;
24233;SDS011;12365;43.554;1.388;2022-08-11T16:26:23;6.28;;;2.10;;
24233;SDS011;12365;43.554;1.388;2022-08-11T16:28:51;5.32;;;2.28;;
24233;SDS011;12365;43.554;1.388;2022-08-11T16:31:20;6.53;;;2.10;;
24233;SDS011;12365;43.554;1.388;2022-08-11T16:33:46;3.85;;;1.90;;
24233;SDS011;12365;43.554;1.388;2022-08-11T16:36:14;3.80;;;2.10;;
24233;SDS011;12365;43.554;1.388;2022-08-11T16:38:59;6.78;;;1.90;;
24233;SDS011;12365;43.554;1.388;2022-08-11T16:41:28;2.20;;;2.00;;
24233;SDS011;12365;43.554;1.388;2022-08-11T16:44:13;6.55;;;2.22;;
24233;SDS011;12365;43.554;1.388;2022-08-11T16:47:00;3.47;;;2.20;;
24233;SDS011;12365;43.554;1.388;2022-08-11T16:49:35;6.20;;;2.10;;
24233;SDS011;12365;43.554;1.388;2022-08-11T16:52:03;4.50;;;2.13;;
24233;SDS011;12365;43.554;1.388;2022-08-11T16:54:35;3.30;;;2.00;;
24233;SDS011;12365;43.554;1.388;2022-08-11T16:57:02;5.22;;;1.90;;
24233;SDS011;12365;43.554;1.388;2022-08-11T16:59:50;6.22;;;2.10;;
24233;SDS011;12365;43.554;1.388;2022-08-11T17:02:17;5.22;;;2.15;;
24233;SDS011;12365;43.554;1.388;2022-08-11T17:05:07;2.67;;;2.03;;
24233;SDS011;12365;43.554;1.388;2022-08-11T17:07:54;7.32;;;2.10;;
24233;SDS011;12365;43.554;1.388;2022-08-11T17:10:42;3.53;;;1.90;;
24233;SDS011;12365;43.554;1.388;2022-08-11T17:13:35;6.35;;;2.33;;
24233;SDS011;12365;43.554;1.388;2022-08-11T17:16:04;4.82;;;1.92;;
24233;SDS011;12365;43.554;1.388;2022-08-11T17:21:35;7.75;;;2.20;;
24233;SDS011;12365;43.554;1.388;2022-08-11T17:24:24;10.43;;;2.17;;
24233;SDS011;12365;43.554;1.388;2022-08-11T17:26:51;2.50;;;1.98;;
24233;SDS011;12365;43.554;1.388;2022-08-11T17:29:32;4.20;;;1.98;;
24233;SDS011;12365;43.554;1.388;2022-08-11T17:34:48;6.50;;;2.20;;
24233;SDS011;12365;43.554;1.388;2022-08-11T17:37:35;3.70;;;2.05;;
24233;SDS011;12365;43.554;1.388;2022-08-11T17:40:03;4.00;;;2.08;;
24233;SDS011;12365;43.554;1.388;2022-08-11T17:42:32;5.50;;;2.30;;
24233;SDS011;12365;43.554;1.388;2022-08-11T17:45:18;4.05;;;2.17;;
24233;SDS011;12365;43.554;1.388;2022-08-11T17:48:04;3.78;;;2.40;;
24233;SDS011;12365;43.554;1.388;2022-08-11T17:50:50;3.45;;;2.08;;
24233;SDS011;12365;43.554;1.388;2022-08-11T17:53:17;5.72;;;2.00;;
24233;SDS011;12365;43.554;1.388;2022-08-11T17:56:02;4.05;;;2.20;;
24233;SDS011;12365;43.554;1.388;2022-08-11T17:58:57;2.75;;;2.25;;
24233;SDS011;12365;43.554;1.388;2022-08-11T18:01:43;4.28;;;2.00;;
24233;SDS011;12365;43.554;1.388;2022-08-11T18:04:11;4.13;;;2.20;;
24233;SDS011;12365;43.554;1.388;2022-08-11T18:06:38;3.03;;;1.95;;
24233;SDS011;12365;43.554;1.388;2022-08-11T18:09:09;2.85;;;2.05;;
24233;SDS011;12365;43.554;1.388;2022-08-11T18:11:57;7.53;;;2.25;;
24233;SDS011;12365;43.554;1.388;2022-08-11T18:14:44;4.38;;;2.10;;
24233;SDS011;12365;43.554;1.388;2022-08-11T18:17:30;4.82;;;2.08;;
24233;SDS011;12365;43.554;1.388;2022-08-11T18:20:15;6.03;;;2.30;;
24233;SDS011;12365;43.554;1.388;2022-08-11T18:23:02;7.55;;;3.30;;
24233;SDS011;12365;43.554;1.388;2022-08-11T18:25:49;5.30;;;3.30;;
24233;SDS011;12365;43.554;1.388;2022-08-11T18:28:44;6.47;;;2.50;;
24233;SDS011;12365;43.554;1.388;2022-08-11T18:31:32;7.88;;;3.65;;
24233;SDS011;12365;43.554;1.388;2022-08-11T18:34:19;4.70;;;2.80;;
24233;SDS011;12365;43.554;1.388;2022-08-11T18:37:12;5.22;;;2.25;;
24233;SDS011;12365;43.554;1.388;2022-08-11T18:40:01;7.28;;;2.25;;
24233;SDS011;12365;43.554;1.388;2022-08-11T18:42:49;5.93;;;2.20;;
24233;SDS011;12365;43.554;1.388;2022-08-11T18:45:38;4.18;;;2.03;;
24233;SDS011;12365;43.554;1.388;2022-08-11T18:48:24;2.42;;;1.98;;
24233;SDS011;12365;43.554;1.388;2022-08-11T18:51:11;4.30;;;2.10;;
24233;SDS011;12365;43.554;1.388;2022-08-11T18:54:01;4.45;;;2.17;;
24233;SDS011;12365;43.554;1.388;2022-08-11T18:56:48;5.57;;;2.20;;
24233;SDS011;12365;43.554;1.388;2022-08-11T18:59:36;4.97;;;2.72;;
24233;SDS011;12365;43.554;1.388;2022-08-11T19:02:23;2.97;;;2.03;;
24233;SDS011;12365;43.554;1.388;2022-08-11T19:05:09;11.57;;;2.60;;
24233;SDS011;12365;43.554;1.388;2022-08-11T19:07:56;4.43;;;2.00;;
24233;SDS011;12365;43.554;1.388;2022-08-11T19:10:45;3.17;;;2.30;;
24233;SDS011;12365;43.554;1.388;2022-08-11T19:13:31;2.35;;;1.90;;
24233;SDS011;12365;43.554;1.388;2022-08-11T19:16:19;3.03;;;2.13;;
24233;SDS011;12365;43.554;1.388;2022-08-11T19:19:07;4.30;;;2.13;;
24233;SDS011;12365;43.554;1.388;2022-08-11T19:21:53;3.83;;;1.80;;
24233;SDS011;12365;43.554;1.388;2022-08-11T19:24:38;2.67;;;2.00;;
24233;SDS011;12365;43.554;1.388;2022-08-11T19:27:24;3.20;;;2.10;;
24233;SDS011;12365;43.554;1.388;2022-08-11T19:30:10;5.53;;;2.15;;
24233;SDS011;12365;43.554;1.388;2022-08-11T19:32:55;2.92;;;2.17;;
24233;SDS011;12365;43.554;1.388;2022-08-11T19:35:41;6.22;;;2.28;;
24233;SDS011;12365;43.554;1.388;2022-08-11T19:38:27;3.00;;;2.00;;